Time;durP1;ratioP1;P1;durP2;ratioP2;P2;SDS_P1;SDS_P2;PMS_P1;PMS_P2;Temp;Humidity;BMP_temperature;BMP_pressure;BME280_temperature;BME280_humidity;BME280_pressure;Samples;Min_cycle;Max_cycle;Signal;HPM_P1;HPM_P2
2021/04/27 00:01:55;;;;;;;9.02;2.95;;;;;;;;;;5081519;28;32068;-76
2021/04/27 00:04:21;;;;;;;7.82;3.28;;;;;;;;;;5081235;28;31874;-74
2021/04/27 00:06:47;;;;;;;13.63;3.83;;;;;;;;;;5081415;28;32515;-74
2021/04/27 00:09:12;;;;;;;6.45;3.00;;;;;;;;;;5081265;28;32386;-77
2021/04/27 00:11:38;;;;;;;8.60;2.95;;;;;;;;;;5081444;28;31942;-76
2021/04/27 00:14:05;;;;;;;8.20;3.17;;;;;;;;;;5081314;28;33011;-73
2021/04/27 00:16:31;;;;;;;5.05;2.63;;;;;;;;;;5080798;28;33484;-74
2021/04/27 00:18:56;;;;;;;5.95;3.20;;;;;;;;;;5081247;28;32209;-74
2021/04/27 00:21:22;;;;;;;9.43;3.45;;;;;;;;;;5081065;28;31946;-75
2021/04/27 00:23:48;;;;;;;6.30;3.40;;;;;;;;;;5080046;28;31947;-78
2021/04/27 00:26:14;;;;;;;4.53;2.97;;;;;;;;;;5080935;28;32548;-73
2021/04/27 00:28:39;;;;;;;17.83;3.42;;;;;;;;;;5080851;28;32473;-74
2021/04/27 00:31:05;;;;;;;8.20;3.00;;;;;;;;;;5081132;28;32529;-71
2021/04/27 00:33:31;;;;;;;10.70;3.13;;;;;;;;;;5080776;28;32061;-72
2021/04/27 00:35:57;;;;;;;4.57;2.67;;;;;;;;;;5080833;28;33441;-71
2021/04/27 00:38:22;;;;;;;6.07;2.70;;;;;;;;;;5080414;28;33337;-71
2021/04/27 00:40:48;;;;;;;14.30;3.38;;;;;;;;;;5080275;28;31882;-72
2021/04/27 00:43:14;;;;;;;9.60;2.90;;;;;;;;;;5080969;28;31947;-71
2021/04/27 00:45:39;;;;;;;6.82;3.00;;;;;;;;;;5080654;28;33578;-71
2021/04/27 00:48:05;;;;;;;10.35;2.90;;;;;;;;;;5080649;28;33267;-71
2021/04/27 00:50:32;;;;;;;8.82;2.83;;;;;;;;;;5080944;28;32823;-76
2021/04/27 00:52:58;;;;;;;9.38;3.10;;;;;;;;;;5079250;28;30418;-71
2021/04/27 00:55:25;;;;;;;5.53;2.75;;;;;;;;;;5080719;28;32605;-71
2021/04/27 00:57:51;;;;;;;7.55;3.33;;;;;;;;;;5079559;28;30786;-72
2021/04/27 01:00:19;;;;;;;8.48;3.70;;;;;;;;;;5079191;28;31242;-72
2021/04/27 01:02:45;;;;;;;12.05;2.95;;;;;;;;;;5080356;28;31898;-71
2021/04/27 01:05:12;;;;;;;10.40;2.65;;;;;;;;;;5080524;28;32627;-71
2021/04/27 01:07:42;;;;;;;7.90;2.88;;;;;;;;;;5079174;28;30804;-71
2021/04/27 01:10:10;;;;;;;11.82;3.55;;;;;;;;;;5083162;28;31672;-71
2021/04/27 01:12:39;;;;;;;6.60;3.30;;;;;;;;;;5082602;28;30823;-71
2021/04/27 01:15:08;;;;;;;8.98;2.90;;;;;;;;;;5082910;28;31091;-77
2021/04/27 01:17:35;;;;;;;7.88;3.40;;;;;;;;;;5084064;28;33244;-78
2021/04/27 01:20:15;;;;;;;8.32;2.65;;;;;;;;;;5083611;28;40664;-78
2021/04/27 01:23:01;;;;;;;13.00;3.30;;;;;;;;;;5083359;28;31709;-73
2021/04/27 01:25:45;;;;;;;13.48;3.22;;;;;;;;;;5083508;28;33619;-76
2021/04/27 01:28:12;;;;;;;4.32;2.95;;;;;;;;;;5083718;28;32476;-78
2021/04/27 01:30:39;;;;;;;9.38;2.90;;;;;;;;;;5083906;28;32096;-76
2021/04/27 01:33:11;;;;;;;7.10;3.10;;;;;;;;;;5082322;28;30951;-78
2021/04/27 01:35:37;;;;;;;9.73;3.42;;;;;;;;;;5082268;28;32584;-78
2021/04/27 01:38:06;;;;;;;8.18;3.47;;;;;;;;;;5082549;28;30745;-71
2021/04/27 01:40:32;;;;;;;9.02;3.40;;;;;;;;;;5082716;28;32844;-81
2021/04/27 01:43:00;;;;;;;6.85;2.72;;;;;;;;;;5082248;28;30466;-76
2021/04/27 01:45:27;;;;;;;9.18;3.30;;;;;;;;;;5082360;28;31348;-80
2021/04/27 01:47:54;;;;;;;8.95;2.97;;;;;;;;;;5083541;28;32168;-80
2021/04/27 01:50:21;;;;;;;6.88;3.08;;;;;;;;;;5082031;28;30442;-79
2021/04/27 01:53:06;;;;;;;14.75;4.72;;;;;;;;;;5083796;28;32666;-80
2021/04/27 01:55:31;;;;;;;16.30;3.38;;;;;;;;;;5081993;28;30999;-80
2021/04/27 01:57:57;;;;;;;8.02;3.65;;;;;;;;;;5082031;28;30737;-80
2021/04/27 02:00:24;;;;;;;7.00;3.40;;;;;;;;;;5082603;28;32951;-79
2021/04/27 02:02:50;;;;;;;8.43;2.85;;;;;;;;;;5081845;28;30544;-75
2021/04/27 02:05:34;;;;;;;9.27;3.47;;;;;;;;;;5078867;28;45275;-71
2021/04/27 02:08:06;;;;;;;9.32;3.08;;;;;;;;;;5081907;28;30895;-76
2021/04/27 02:10:34;;;;;;;7.30;3.15;;;;;;;;;;5082234;28;30787;-77
2021/04/27 02:13:12;;;;;;;13.13;3.88;;;;;;;;;;5082688;28;32903;-78
2021/04/27 02:15:40;;;;;;;10.02;2.80;;;;;;;;;;5081614;28;31486;-74
2021/04/27 02:18:17;;;;;;;7.85;3.28;;;;;;;;;;5081624;28;31939;-75
2021/04/27 02:20:44;;;;;;;6.85;3.00;;;;;;;;;;5080787;28;30945;-77
2021/04/27 02:23:36;;;;;;;6.22;2.70;;;;;;;;;;5082851;28;31644;-77
2021/04/27 02:26:10;;;;;;;7.43;3.50;;;;;;;;;;5081154;28;30972;-71
2021/04/27 02:28:42;;;;;;;;;;;;;;;;;;5082825;28;30166;-76
2021/04/27 02:31:08;;;;;;;11.43;3.55;;;;;;;;;;5082703;28;32038;-79
2021/04/27 02:33:34;;;;;;;12.98;3.30;;;;;;;;;;5081347;28;31725;-74
2021/04/27 02:36:00;;;;;;;6.10;2.85;;;;;;;;;;5082803;28;32576;-77
2021/04/27 02:38:41;;;;;;;10.63;3.20;;;;;;;;;;5081496;28;31771;-76
2021/04/27 02:41:07;;;;;;;7.53;3.05;;;;;;;;;;5082395;28;32946;-78
2021/04/27 02:43:36;;;;;;;8.68;2.80;;;;;;;;;;5081316;28;31196;-78
2021/04/27 02:46:02;;;;;;;9.07;3.53;;;;;;;;;;5082417;28;32731;-71
2021/04/27 02:48:32;;;;;;;5.28;2.97;;;;;;;;;;5081080;28;30945;-77
2021/04/27 02:51:08;;;;;;;8.15;3.17;;;;;;;;;;5081188;28;30530;-77
2021/04/27 02:53:48;;;;;;;6.38;3.60;;;;;;;;;;5081264;28;31193;-77
2021/04/27 02:56:14;;;;;;;7.65;3.00;;;;;;;;;;5081051;28;31021;-73
2021/04/27 02:58:46;;;;;;;7.70;3.67;;;;;;;;;;5081430;28;30473;-73
2021/04/27 03:01:13;;;;;;;9.82;3.08;;;;;;;;;;5081020;28;31722;-74
2021/04/27 03:03:39;;;;;;;9.18;3.03;;;;;;;;;;5082047;28;32060;-73
2021/04/27 03:06:06;;;;;;;6.28;3.38;;;;;;;;;;5082158;28;32574;-71
2021/04/27 03:08:35;;;;;;;8.07;3.17;;;;;;;;;;5080690;28;35626;-72
2021/04/27 03:11:01;;;;;;;6.50;3.47;;;;;;;;;;5082302;28;32218;-72
2021/04/27 03:13:30;;;;;;;6.70;3.10;;;;;;;;;;5080476;28;30384;-71
2021/04/27 03:15:55;;;;;;;13.57;3.15;;;;;;;;;;5080898;28;32496;-71
2021/04/27 03:18:22;;;;;;;11.55;5.53;;;;;;;;;;5082725;28;33189;-71
2021/04/27 03:20:48;;;;;;;13.48;3.60;;;;;;;;;;5083333;28;31963;-71
2021/04/27 03:23:26;;;;;;;12.35;3.47;;;;;;;;;;5082117;28;31200;-71
2021/04/27 03:25:52;;;;;;;22.27;3.90;;;;;;;;;;5081946;28;33445;-71
2021/04/27 03:28:24;;;;;;;29.27;3.72;;;;;;;;;;5080767;28;31222;-72
2021/04/27 03:30:59;;;;;;;16.27;3.42;;;;;;;;;;5080429;28;30423;-72
2021/04/27 03:33:25;;;;;;;18.65;3.80;;;;;;;;;;5079991;28;30630;-71
2021/04/27 03:35:52;;;;;;;25.58;4.60;;;;;;;;;;5081865;28;32673;-72
2021/04/27 03:38:19;;;;;;;17.38;4.13;;;;;;;;;;5082994;28;32281;-72
2021/04/27 03:40:45;;;;;;;22.15;3.72;;;;;;;;;;5082264;28;32075;-71
2021/04/27 03:43:14;;;;;;;10.05;3.60;;;;;;;;;;5080937;28;30707;-72
2021/04/27 03:45:44;;;;;;;8.93;3.80;;;;;;;;;;5081240;28;32706;-71
2021/04/27 03:48:12;;;;;;;9.57;4.10;;;;;;;;;;5080741;28;30834;-72
2021/04/27 03:50:45;;;;;;;10.55;3.40;;;;;;;;;;5080308;28;30744;-72
2021/04/27 03:53:27;;;;;;;7.55;3.38;;;;;;;;;;5080480;28;32001;-71
2021/04/27 03:55:53;;;;;;;13.57;3.10;;;;;;;;;;5081014;28;33542;-72
2021/04/27 03:58:19;;;;;;;11.38;3.83;;;;;;;;;;5081619;28;32824;-72
2021/04/27 04:00:45;;;;;;;10.20;3.63;;;;;;;;;;5079943;28;30936;-73
2021/04/27 04:03:18;;;;;;;9.63;3.03;;;;;;;;;;5080608;28;30564;-72
2021/04/27 04:05:44;;;;;;;13.98;3.88;;;;;;;;;;5081474;28;33644;-72
2021/04/27 04:08:22;;;;;;;14.38;2.92;;;;;;;;;;5080193;28;36842;-72
2021/04/27 04:10:48;;;;;;;8.25;3.15;;;;;;;;;;5079707;28;31892;-71
2021/04/27 04:13:13;;;;;;;7.38;3.83;;;;;;;;;;5080242;28;30877;-72
2021/04/27 04:15:40;;;;;;;6.45;3.42;;;;;;;;;;5079926;28;31134;-72
2021/04/27 04:18:06;;;;;;;15.20;3.63;;;;;;;;;;5079979;28;31879;-77
2021/04/27 04:20:32;;;;;;;6.30;3.75;;;;;;;;;;5081248;28;32082;-78
2021/04/27 04:23:15;;;;;;;24.15;3.55;;;;;;;;;;5079733;28;30433;-76
2021/04/27 04:25:41;;;;;;;19.90;3.80;;;;;;;;;;5079613;28;30614;-76
2021/04/27 04:28:07;;;;;;;22.13;3.63;;;;;;;;;;5079230;28;32910;-77
2021/04/27 04:30:33;;;;;;;15.32;5.95;;;;;;;;;;5079910;28;31899;-77
2021/04/27 04:33:17;;;;;;;11.20;3.10;;;;;;;;;;5078329;28;32673;-76
2021/04/27 04:36:18;;;;;;;8.32;3.67;;;;;;;;;;5078405;28;33864;-79
2021/04/27 04:39:02;;;;;;;;;;;;;;;;;;5082395;28;33698;-77
2021/04/27 04:41:47;;;;;;;15.48;4.30;;;;;;;;;;5080355;28;31641;-74
2021/04/27 04:44:45;;;;;;;8.10;3.17;;;;;;;;;;5082495;28;32549;-77
2021/04/27 04:47:29;;;;;;;;;;;;;;;;;;5085851;28;34129;-74
2021/04/27 04:50:27;;;;;;;7.32;3.55;;;;;;;;;;5082668;28;32977;-73
2021/04/27 04:53:13;;;;;;;11.70;3.53;;;;;;;;;;5084262;28;31464;-73
2021/04/27 04:55:44;;;;;;;10.52;3.95;;;;;;;;;;5083017;28;30905;-73
2021/04/27 04:58:18;;;;;;;8.70;4.03;;;;;;;;;;5083106;28;30480;-73
2021/04/27 05:00:52;;;;;;;11.05;3.45;;;;;;;;;;5084272;28;32466;-73
2021/04/27 05:03:41;;;;;;;5.78;3.47;;;;;;;;;;5083137;28;31380;-73
2021/04/27 05:06:27;;;;;;;7.22;3.75;;;;;;;;;;5084172;28;32804;-78
2021/04/27 05:09:12;;;;;;;6.85;3.20;;;;;;;;;;5084265;28;33225;-71
2021/04/27 05:11:41;;;;;;;6.38;3.47;;;;;;;;;;5083652;28;33316;-77
2021/04/27 05:14:37;;;;;;;7.28;3.33;;;;;;;;;;5081764;28;32363;-75
2021/04/27 05:17:05;;;;;;;9.35;4.45;;;;;;;;;;5083896;28;32920;-76
2021/04/27 05:19:31;;;;;;;9.52;3.75;;;;;;;;;;5084161;28;32829;-77
2021/04/27 05:21:58;;;;;;;9.75;3.53;;;;;;;;;;5082481;28;31127;-73
2021/04/27 05:24:25;;;;;;;11.13;3.72;;;;;;;;;;5082427;28;30745;-71
2021/04/27 05:26:52;;;;;;;12.73;4.13;;;;;;;;;;5082044;28;30432;-72
2021/04/27 05:29:18;;;;;;;11.98;3.95;;;;;;;;;;5083913;28;33305;-71
2021/04/27 05:31:44;;;;;;;8.50;4.32;;;;;;;;;;5083163;28;32275;-72
2021/04/27 05:34:10;;;;;;;15.65;4.05;;;;;;;;;;5083934;28;32881;-73
2021/04/27 05:36:35;;;;;;;18.67;4.20;;;;;;;;;;5083521;28;33002;-73
2021/04/27 05:39:01;;;;;;;10.18;3.67;;;;;;;;;;5083463;28;32752;-73
2021/04/27 05:41:27;;;;;;;9.65;4.18;;;;;;;;;;5083412;28;33367;-79
2021/04/27 05:43:53;;;;;;;8.85;4.20;;;;;;;;;;5083627;28;31989;-78
2021/04/27 05:46:18;;;;;;;8.77;3.47;;;;;;;;;;5083610;28;32931;-78
2021/04/27 05:48:44;;;;;;;9.25;4.43;;;;;;;;;;5083391;28;32737;-75
2021/04/27 05:51:10;;;;;;;9.55;4.35;;;;;;;;;;5083561;28;32291;-78
2021/04/27 05:53:35;;;;;;;10.45;4.35;;;;;;;;;;5083173;28;32570;-74
2021/04/27 05:56:01;;;;;;;8.40;4.05;;;;;;;;;;5082636;28;32014;-72
2021/04/27 05:58:27;;;;;;;7.80;4.10;;;;;;;;;;5082832;28;32645;-73
2021/04/27 06:00:53;;;;;;;10.25;4.18;;;;;;;;;;5083511;28;32944;-73
2021/04/27 06:03:18;;;;;;;7.82;3.53;;;;;;;;;;5083319;28;32011;-73
2021/04/27 06:05:44;;;;;;;11.30;4.65;;;;;;;;;;5083294;28;32023;-76
2021/04/27 06:08:10;;;;;;;7.22;4.05;;;;;;;;;;5083232;28;33576;-73
2021/04/27 06:10:36;;;;;;;8.90;3.83;;;;;;;;;;5083158;28;32353;-74
2021/04/27 06:13:01;;;;;;;9.05;3.85;;;;;;;;;;5082944;28;31860;-76
2021/04/27 06:15:27;;;;;;;9.45;3.60;;;;;;;;;;5083001;28;32627;-74
2021/04/27 06:17:53;;;;;;;10.07;4.78;;;;;;;;;;5083008;28;33531;-77
2021/04/27 06:20:19;;;;;;;13.00;4.32;;;;;;;;;;5082692;28;32411;-75
2021/04/27 06:22:44;;;;;;;7.38;3.92;;;;;;;;;;5083169;28;32010;-74
2021/04/27 06:25:10;;;;;;;7.30;4.10;;;;;;;;;;5083075;28;32036;-76
2021/04/27 06:27:36;;;;;;;10.57;4.10;;;;;;;;;;5082514;28;32616;-73
2021/04/27 06:30:03;;;;;;;8.13;4.13;;;;;;;;;;5082340;28;32327;-74
2021/04/27 06:32:29;;;;;;;16.42;5.10;;;;;;;;;;5082694;28;30920;-76
2021/04/27 06:34:54;;;;;;;12.07;5.25;;;;;;;;;;5082976;28;32181;-74
2021/04/27 06:37:20;;;;;;;8.77;4.40;;;;;;;;;;5082522;28;32597;-74
2021/04/27 06:39:46;;;;;;;9.77;4.60;;;;;;;;;;5082233;28;32280;-74
2021/04/27 06:42:12;;;;;;;15.82;5.18;;;;;;;;;;5082486;28;32509;-73
2021/04/27 06:44:38;;;;;;;10.23;4.20;;;;;;;;;;5082738;28;32039;-72
2021/04/27 06:47:04;;;;;;;8.70;4.65;;;;;;;;;;5082567;28;32533;-75
2021/04/27 06:49:31;;;;;;;8.30;4.60;;;;;;;;;;5082493;28;32448;-73
2021/04/27 06:51:57;;;;;;;9.13;4.43;;;;;;;;;;5082959;28;32025;-72
2021/04/27 06:54:22;;;;;;;10.63;4.70;;;;;;;;;;5082590;28;32066;-75
2021/04/27 06:56:48;;;;;;;10.55;4.82;;;;;;;;;;5082556;28;33587;-75
2021/04/27 06:59:16;;;;;;;4.78;2.08;;;;;;;;;;5082485;28;32282;-75
2021/04/27 07:01:42;;;;;;;11.82;6.03;;;;;;;;;;5081935;28;32904;-73
2021/04/27 07:04:07;;;;;;;9.77;5.68;;;;;;;;;;5082453;28;32073;-77
2021/04/27 07:06:33;;;;;;;15.30;5.63;;;;;;;;;;5081185;28;33210;-77
2021/04/27 07:08:59;;;;;;;17.65;5.28;;;;;;;;;;5082365;28;32409;-74
2021/04/27 07:11:24;;;;;;;10.93;5.47;;;;;;;;;;5082150;28;32035;-75
2021/04/27 07:13:50;;;;;;;15.70;5.32;;;;;;;;;;5082241;28;33009;-77
2021/04/27 07:16:17;;;;;;;15.75;5.30;;;;;;;;;;5082136;28;32561;-73
2021/04/27 07:18:43;;;;;;;8.95;5.20;;;;;;;;;;5081986;28;32191;-72
2021/04/27 07:21:09;;;;;;;10.13;5.63;;;;;;;;;;5081949;28;32016;-73
2021/04/27 07:23:34;;;;;;;12.18;5.80;;;;;;;;;;5082247;28;32989;-72
2021/04/27 07:26:00;;;;;;;11.50;4.75;;;;;;;;;;5082090;28;32506;-72
2021/04/27 07:28:34;;;;;;;8.52;3.67;;;;;;;;;;5120751;28;20519;-71
2021/04/27 07:31:00;;;;;;;15.20;5.57;;;;;;;;;;5120161;28;32514;-72
2021/04/27 07:33:26;;;;;;;9.80;4.97;;;;;;;;;;5119183;28;32941;-72
2021/04/27 07:35:51;;;;;;;10.60;5.60;;;;;;;;;;5120199;27;32777;-73
2021/04/27 07:38:17;;;;;;;15.13;5.88;;;;;;;;;;5122633;27;32360;-74
2021/04/27 07:40:43;;;;;;;11.63;5.53;;;;;;;;;;5122985;28;32006;-70
2021/04/27 07:43:09;;;;;;;11.50;5.68;;;;;;;;;;5123119;27;33079;-69
2021/04/27 07:45:34;;;;;;;10.52;5.40;;;;;;;;;;5122914;28;32680;-70
2021/04/27 07:48:02;;;;;;;11.75;5.72;;;;;;;;;;5102756;28;30474;-70
2021/04/27 07:50:27;;;;;;;10.80;6.03;;;;;;;;;;5118732;27;31844;-70
2021/04/27 07:52:53;;;;;;;9.70;5.20;;;;;;;;;;5121076;28;32664;-76
2021/04/27 07:55:19;;;;;;;13.68;6.65;;;;;;;;;;5118471;28;32560;-78
2021/04/27 07:57:45;;;;;;;18.77;6.47;;;;;;;;;;5121960;28;33056;-70
2021/04/27 08:00:10;;;;;;;17.35;5.82;;;;;;;;;;5118244;27;31908;-73
2021/04/27 08:02:40;;;;;;;9.70;5.50;;;;;;;;;;5120815;27;32876;-71
2021/04/27 08:05:07;;;;;;;12.15;6.32;;;;;;;;;;5120378;28;32535;-71
2021/04/27 08:07:32;;;;;;;17.48;7.70;;;;;;;;;;5118104;28;32202;-71
2021/04/27 08:09:58;;;;;;;15.07;6.57;;;;;;;;;;5118078;28;31893;-71
2021/04/27 08:12:24;;;;;;;14.93;5.90;;;;;;;;;;5117744;27;32050;-73
2021/04/27 08:14:50;;;;;;;10.93;6.05;;;;;;;;;;5117869;27;33556;-75
2021/04/27 08:17:15;;;;;;;10.60;6.30;;;;;;;;;;5118058;28;31859;-76
2021/04/27 08:19:41;;;;;;;10.32;6.40;;;;;;;;;;5119946;28;31964;-73
2021/04/27 08:22:07;;;;;;;16.88;8.13;;;;;;;;;;5117869;28;31695;-73
2021/04/27 08:24:36;;;;;;;11.73;6.55;;;;;;;;;;5117699;28;32645;-74
2021/04/27 08:27:02;;;;;;;15.40;5.90;;;;;;;;;;5117415;28;32046;-74
2021/04/27 08:29:28;;;;;;;10.35;6.03;;;;;;;;;;5117331;27;31710;-75
2021/04/27 08:31:53;;;;;;;14.77;6.38;;;;;;;;;;5117850;28;32733;-74
2021/04/27 08:34:19;;;;;;;17.85;6.95;;;;;;;;;;5117767;28;32744;-71
2021/04/27 08:36:45;;;;;;;16.42;6.20;;;;;;;;;;5117521;27;32195;-75
2021/04/27 08:39:11;;;;;;;17.25;7.07;;;;;;;;;;5108307;28;32010;-74
2021/04/27 08:41:37;;;;;;;11.13;3.28;;;;;;;;;;5103591;28;32136;-74
2021/04/27 08:44:04;;;;;;;16.48;6.68;;;;;;;;;;5104090;28;32622;-73
2021/04/27 08:46:30;;;;;;;17.00;6.82;;;;;;;;;;5106568;28;32089;-76
2021/04/27 08:48:56;;;;;;;14.77;6.00;;;;;;;;;;5110926;27;32443;-77
2021/04/27 08:51:22;;;;;;;14.40;6.50;;;;;;;;;;5107709;28;32302;-75
2021/04/27 08:53:48;;;;;;;19.90;7.10;;;;;;;;;;5100892;28;32700;-70
2021/04/27 08:56:13;;;;;;;14.30;6.45;;;;;;;;;;5103697;28;33068;-70
2021/04/27 08:58:39;;;;;;;13.57;7.30;;;;;;;;;;5103192;28;31838;-70
2021/04/27 09:01:05;;;;;;;11.57;6.68;;;;;;;;;;5103283;28;32646;-71
2021/04/27 09:03:41;;;;;;;16.00;7.43;;;;;;;;;;5101757;28;31652;-70
2021/04/27 09:06:13;;;;;;;14.82;6.65;;;;;;;;;;5100486;28;32005;-70
2021/04/27 09:08:41;;;;;;;13.88;7.65;;;;;;;;;;5103440;28;32004;-70
2021/04/27 09:11:23;;;;;;;11.80;5.38;;;;;;;;;;5102918;28;33041;-70
2021/04/27 09:14:05;;;;;;;16.42;6.88;;;;;;;;;;5100618;28;33616;-70
2021/04/27 09:16:30;;;;;;;29.58;7.25;;;;;;;;;;5103198;28;33100;-70
2021/04/27 09:18:56;;;;;;;15.52;7.18;;;;;;;;;;5102931;28;32043;-77
2021/04/27 09:21:30;;;;;;;15.18;8.20;;;;;;;;;;5103372;28;31948;-75
2021/04/27 09:23:56;;;;;;;18.38;7.53;;;;;;;;;;5102861;28;32434;-79
2021/04/27 09:26:23;;;;;;;16.05;7.57;;;;;;;;;;5101944;28;30467;-78
2021/04/27 09:28:50;;;;;;;9.25;5.75;;;;;;;;;;5104625;28;31699;-76
2021/04/27 09:31:21;;;;;;;20.45;8.02;;;;;;;;;;5103218;28;31912;-73
2021/04/27 09:33:48;;;;;;;12.20;6.45;;;;;;;;;;5103318;28;32326;-75
2021/04/27 09:36:20;;;;;;;10.70;3.03;;;;;;;;;;5102633;28;33098;-73
2021/04/27 09:38:46;;;;;;;13.43;6.25;;;;;;;;;;5102836;28;32831;-70
2021/04/27 09:41:12;;;;;;;11.73;5.97;;;;;;;;;;5102859;28;32604;-70
2021/04/27 09:43:40;;;;;;;21.20;8.05;;;;;;;;;;5102746;28;32720;-70
2021/04/27 09:46:12;;;;;;;11.00;5.38;;;;;;;;;;5102882;28;32114;-70
2021/04/27 09:48:41;;;;;;;15.32;6.80;;;;;;;;;;5102182;28;35443;-70
2021/04/27 09:51:13;;;;;;;14.38;6.65;;;;;;;;;;5101365;28;32017;-70
2021/04/27 09:53:39;;;;;;;10.52;5.45;;;;;;;;;;5102018;28;32657;-70
2021/04/27 09:56:04;;;;;;;14.75;6.65;;;;;;;;;;5102959;28;32111;-70
2021/04/27 09:58:30;;;;;;;10.32;5.20;;;;;;;;;;5099873;28;32660;-69
2021/04/27 10:00:57;;;;;;;16.13;6.85;;;;;;;;;;5102139;28;31991;-70
2021/04/27 10:03:23;;;;;;;15.43;7.20;;;;;;;;;;5101267;28;32559;-70
2021/04/27 10:05:49;;;;;;;13.40;6.68;;;;;;;;;;5102552;28;32185;-70
2021/04/27 10:08:15;;;;;;;14.70;6.60;;;;;;;;;;5102559;28;31948;-70
2021/04/27 10:10:41;;;;;;;12.20;6.43;;;;;;;;;;5103613;28;33189;-70
2021/04/27 10:13:09;;;;;;;14.27;5.35;;;;;;;;;;5102158;28;32458;-70
2021/04/27 10:15:35;;;;;;;10.73;5.85;;;;;;;;;;5102191;28;33179;-70
2021/04/27 10:18:03;;;;;;;11.65;5.65;;;;;;;;;;5102425;28;32046;-70
2021/04/27 10:20:28;;;;;;;7.97;5.10;;;;;;;;;;5102143;28;32156;-71
2021/04/27 10:22:54;;;;;;;11.27;6.88;;;;;;;;;;5102320;28;32369;-70
2021/04/27 10:25:20;;;;;;;13.35;6.97;;;;;;;;;;5102067;28;32014;-70
2021/04/27 10:27:45;;;;;;;12.95;6.78;;;;;;;;;;5100832;28;32878;-70
2021/04/27 10:30:25;;;;;;;9.15;3.90;;;;;;;;;;5102199;28;32072;-70
2021/04/27 10:33:02;;;;;;;13.55;6.25;;;;;;;;;;5102012;28;32675;-70
2021/04/27 10:35:35;;;;;;;4.10;2.40;;;;;;;;;;5100622;28;30456;-70
2021/04/27 10:38:03;;;;;;;12.85;6.65;;;;;;;;;;5102113;28;32863;-70
2021/04/27 10:40:42;;;;;;;12.13;6.68;;;;;;;;;;5101634;28;32978;-70
2021/04/27 10:43:26;;;;;;;8.10;3.97;;;;;;;;;;5101730;28;33218;-70
2021/04/27 10:45:53;;;;;;;8.20;3.58;;;;;;;;;;5100457;28;30536;-71
2021/04/27 10:48:30;;;;;;;2.35;1.48;;;;;;;;;;5101052;28;32758;-70
2021/04/27 10:50:56;;;;;;;10.45;5.95;;;;;;;;;;5100368;28;30466;-70
2021/04/27 10:53:32;;;;;;;13.73;6.60;;;;;;;;;;5101790;28;33521;-70
2021/04/27 10:55:58;;;;;;;12.55;6.15;;;;;;;;;;5101751;28;31974;-71
2021/04/27 10:58:41;;;;;;;8.95;2.80;;;;;;;;;;5101580;28;31993;-70
2021/04/27 11:01:20;;;;;;;5.25;2.35;;;;;;;;;;5101461;28;31964;-70
2021/04/27 11:03:50;;;;;;;9.07;4.80;;;;;;;;;;5098546;28;32596;-71
2021/04/27 11:06:16;;;;;;;3.88;1.58;;;;;;;;;;5101112;28;33111;-70
2021/04/27 11:08:42;;;;;;;2.00;1.13;;;;;;;;;;5101553;28;32853;-71
2021/04/27 11:11:22;;;;;;;4.88;2.08;;;;;;;;;;5101110;28;31917;-70
2021/04/27 11:13:49;;;;;;;15.80;6.72;;;;;;;;;;5100442;28;32267;-69
2021/04/27 11:16:25;;;;;;;17.52;5.80;;;;;;;;;;5101412;28;32137;-69
2021/04/27 11:18:50;;;;;;;11.23;5.55;;;;;;;;;;5101132;28;32616;-69
2021/04/27 11:21:17;;;;;;;10.63;5.93;;;;;;;;;;5101488;28;32053;-69
2021/04/27 11:23:52;;;;;;;2.65;1.80;;;;;;;;;;5101454;28;32625;-69
2021/04/27 11:26:32;;;;;;;9.88;4.38;;;;;;;;;;5100825;28;32139;-69
2021/04/27 11:28:59;;;;;;;14.48;7.15;;;;;;;;;;5098326;28;31850;-70
2021/04/27 11:31:25;;;;;;;5.63;3.53;;;;;;;;;;5101354;28;32064;-69
2021/04/27 11:33:58;;;;;;;3.08;1.23;;;;;;;;;;5101347;28;32409;-70
2021/04/27 11:36:37;;;;;;;12.25;7.13;;;;;;;;;;5101222;28;33185;-71
2021/04/27 11:39:08;;;;;;;6.68;2.45;;;;;;;;;;5101211;28;32934;-70
2021/04/27 11:41:43;;;;;;;7.18;3.17;;;;;;;;;;5101183;28;33022;-69
2021/04/27 11:44:09;;;;;;;5.82;2.95;;;;;;;;;;5100728;28;32448;-70
2021/04/27 11:46:53;;;;;;;13.75;6.38;;;;;;;;;;5099477;28;30665;-72
2021/04/27 11:49:19;;;;;;;10.05;5.63;;;;;;;;;;5105911;28;30853;-70
2021/04/27 11:51:45;;;;;;;17.08;7.45;;;;;;;;;;5106715;28;32967;-69
2021/04/27 11:54:12;;;;;;;11.90;3.78;;;;;;;;;;5101969;28;32604;-70
2021/04/27 11:56:50;;;;;;;5.78;2.70;;;;;;;;;;5101091;28;33268;-69
2021/04/27 11:59:19;;;;;;;13.55;7.32;;;;;;;;;;5100530;28;32921;-69
2021/04/27 12:01:45;;;;;;;4.80;2.65;;;;;;;;;;5099318;28;31529;-72
2021/04/27 12:04:10;;;;;;;12.93;7.25;;;;;;;;;;5099815;28;33576;-69
2021/04/27 12:06:36;;;;;;;17.65;5.68;;;;;;;;;;5099192;28;31717;-76
2021/04/27 12:09:02;;;;;;;14.30;5.88;;;;;;;;;;5100342;28;32046;-73
2021/04/27 12:11:30;;;;;;;7.85;4.80;;;;;;;;;;5100700;28;32703;-69
2021/04/27 12:13:56;;;;;;;12.52;5.95;;;;;;;;;;5101728;28;33230;-75
2021/04/27 12:16:24;;;;;;;17.20;7.45;;;;;;;;;;5104318;28;32280;-69
2021/04/27 12:18:49;;;;;;;13.60;7.22;;;;;;;;;;5104110;28;31874;-69
2021/04/27 12:21:34;;;;;;;9.07;4.80;;;;;;;;;;5104182;28;32919;-74
2021/04/27 12:24:13;;;;;;;8.80;4.68;;;;;;;;;;5104181;28;33688;-70
2021/04/27 12:26:51;;;;;;;8.77;5.88;;;;;;;;;;5103083;28;32194;-72
2021/04/27 12:29:23;;;;;;;13.20;7.22;;;;;;;;;;5103553;28;31883;-70
2021/04/27 12:31:49;;;;;;;14.75;7.05;;;;;;;;;;5103844;28;32013;-72
2021/04/27 12:34:15;;;;;;;6.50;3.65;;;;;;;;;;5104482;27;33536;-72
2021/04/27 12:36:43;;;;;;;18.98;6.65;;;;;;;;;;5104048;28;33079;-70
2021/04/27 12:39:09;;;;;;;13.10;6.55;;;;;;;;;;5103882;28;31819;-69
2021/04/27 12:41:39;;;;;;;11.95;5.25;;;;;;;;;;5103586;28;32062;-69
2021/04/27 12:44:23;;;;;;;6.65;4.15;;;;;;;;;;5103803;28;32685;-69
2021/04/27 12:46:49;;;;;;;14.82;6.80;;;;;;;;;;5103750;28;32139;-69
2021/04/27 12:49:14;;;;;;;8.77;4.75;;;;;;;;;;5103695;28;31962;-69
2021/04/27 12:51:40;;;;;;;6.93;4.28;;;;;;;;;;5103542;28;32952;-69
2021/04/27 12:54:22;;;;;;;12.18;6.47;;;;;;;;;;5103752;28;32522;-69
2021/04/27 12:57:00;;;;;;;13.50;6.28;;;;;;;;;;5100857;28;32043;-69
2021/04/27 12:59:28;;;;;;;6.38;3.40;;;;;;;;;;5100862;28;32909;-70
2021/04/27 13:01:57;;;;;;;10.02;5.97;;;;;;;;;;5103416;28;31847;-70
2021/04/27 13:04:23;;;;;;;8.07;4.95;;;;;;;;;;5103357;28;32485;-71
2021/04/27 13:06:49;;;;;;;13.25;5.68;;;;;;;;;;5103387;28;32949;-69
2021/04/27 13:09:16;;;;;;;11.27;4.10;;;;;;;;;;5102758;28;31889;-69
2021/04/27 13:11:55;;;;;;;14.57;7.10;;;;;;;;;;5103178;28;32111;-69
2021/04/27 13:14:22;;;;;;;8.70;5.80;;;;;;;;;;5102946;28;32647;-70
2021/04/27 13:16:48;;;;;;;12.88;7.18;;;;;;;;;;5103310;28;32109;-69
2021/04/27 13:19:14;;;;;;;15.38;8.15;;;;;;;;;;5102780;28;31905;-69
2021/04/27 13:21:43;;;;;;;13.65;8.23;;;;;;;;;;5103357;28;32001;-69
2021/04/27 13:24:10;;;;;;;8.82;4.22;;;;;;;;;;5102852;28;32494;-69
2021/04/27 13:26:36;;;;;;;7.97;4.22;;;;;;;;;;5101269;28;31283;-70
2021/04/27 13:29:02;;;;;;;19.75;7.75;;;;;;;;;;5100294;28;31705;-69
2021/04/27 13:31:27;;;;;;;12.10;6.97;;;;;;;;;;5103348;28;32121;-69
2021/04/27 13:33:53;;;;;;;12.95;5.10;;;;;;;;;;5103209;28;33151;-69
2021/04/27 13:36:19;;;;;;;12.30;6.32;;;;;;;;;;5102893;28;32298;-69
2021/04/27 13:38:45;;;;;;;9.65;5.22;;;;;;;;;;5102531;28;32915;-69
2021/04/27 13:41:12;;;;;;;15.25;7.55;;;;;;;;;;5102675;28;32939;-69
2021/04/27 13:43:38;;;;;;;11.15;5.90;;;;;;;;;;5102388;28;33404;-69
2021/04/27 13:46:04;;;;;;;13.05;5.70;;;;;;;;;;5102967;28;32253;-69
2021/04/27 13:48:30;;;;;;;8.00;5.13;;;;;;;;;;5102822;28;31839;-69
2021/04/27 13:50:57;;;;;;;10.77;6.90;;;;;;;;;;5102792;28;31911;-69
2021/04/27 13:53:25;;;;;;;9.13;6.32;;;;;;;;;;5101878;28;33108;-69
2021/04/27 13:55:51;;;;;;;14.27;6.38;;;;;;;;;;5102545;28;32079;-69
2021/04/27 13:58:17;;;;;;;12.85;5.75;;;;;;;;;;5102675;28;31586;-69
2021/04/27 14:00:43;;;;;;;14.68;6.95;;;;;;;;;;5102737;28;31972;-69
2021/04/27 14:03:08;;;;;;;13.98;8.23;;;;;;;;;;5102487;28;33545;-69
2021/04/27 14:05:34;;;;;;;17.48;7.72;;;;;;;;;;5101219;28;30744;-69
2021/04/27 14:08:00;;;;;;;13.15;6.03;;;;;;;;;;5101122;28;31582;-69
2021/04/27 14:10:26;;;;;;;7.50;4.38;;;;;;;;;;5102270;28;32006;-69
2021/04/27 14:12:53;;;;;;;10.25;6.30;;;;;;;;;;5102339;28;33549;-76
2021/04/27 14:15:19;;;;;;;10.82;6.45;;;;;;;;;;5102020;28;33038;-73
2021/04/27 14:17:45;;;;;;;10.23;6.93;;;;;;;;;;5102524;28;32906;-69
2021/04/27 14:20:12;;;;;;;12.82;7.80;;;;;;;;;;5102390;28;32032;-72
2021/04/27 14:22:38;;;;;;;15.00;7.03;;;;;;;;;;5101858;28;32873;-76
2021/04/27 14:25:05;;;;;;;7.25;5.05;;;;;;;;;;5102215;28;32095;-69
2021/04/27 14:27:31;;;;;;;7.85;3.63;;;;;;;;;;5101596;28;32896;-77
2021/04/27 14:29:56;;;;;;;9.75;6.05;;;;;;;;;;5101946;28;32028;-74
2021/04/27 14:32:22;;;;;;;7.35;4.93;;;;;;;;;;5102274;28;33203;-74
2021/04/27 14:34:48;;;;;;;13.50;4.60;;;;;;;;;;5102193;28;32088;-69
2021/04/27 14:37:13;;;;;;;10.57;5.70;;;;;;;;;;5101126;28;31867;-72
2021/04/27 14:39:39;;;;;;;12.00;5.97;;;;;;;;;;5101835;28;32044;-69
2021/04/27 14:42:05;;;;;;;12.98;5.68;;;;;;;;;;5102203;28;33128;-69
2021/04/27 14:44:31;;;;;;;10.70;5.88;;;;;;;;;;5101646;28;32220;-72
2021/04/27 14:46:57;;;;;;;13.13;6.55;;;;;;;;;;5101907;28;32056;-75